sensor_id;sensor_type;location;lat;lon;timestamp;P1;durP1;ratioP1;P2;durP2;ratioP2
1691;SDS011;843;52.054;8.552;2024-01-16T00:02:00;6.97;;;3.40;;
1691;SDS011;843;52.054;8.552;2024-01-16T00:04:28;8.87;;;2.90;;
1691;SDS011;843;52.054;8.552;2024-01-16T00:06:56;4.30;;;3.20;;
1691;SDS011;843;52.054;8.552;2024-01-16T00:09:22;3.60;;;2.87;;
1691;SDS011;843;52.054;8.552;2024-01-16T00:11:49;3.80;;;3.40;;
1691;SDS011;843;52.054;8.552;2024-01-16T00:14:15;4.90;;;3.20;;
1691;SDS011;843;52.054;8.552;2024-01-16T00:16:42;9.13;;;2.77;;
1691;SDS011;843;52.054;8.552;2024-01-16T00:19:09;2.47;;;2.30;;
1691;SDS011;843;52.054;8.552;2024-01-16T00:21:39;4.20;;;2.77;;
1691;SDS011;843;52.054;8.552;2024-01-16T00:24:06;2.70;;;2.50;;
1691;SDS011;843;52.054;8.552;2024-01-16T00:26:33;4.60;;;2.83;;
1691;SDS011;843;52.054;8.552;2024-01-16T00:28:59;4.47;;;3.00;;
1691;SDS011;843;52.054;8.552;2024-01-16T00:31:26;3.20;;;2.90;;
1691;SDS011;843;52.054;8.552;2024-01-16T00:33:52;6.73;;;2.93;;
1691;SDS011;843;52.054;8.552;2024-01-16T00:36:18;8.77;;;2.97;;
1691;SDS011;843;52.054;8.552;2024-01-16T00:38:46;4.50;;;3.00;;
1691;SDS011;843;52.054;8.552;2024-01-16T00:41:12;2.80;;;2.60;;
1691;SDS011;843;52.054;8.552;2024-01-16T00:43:40;3.33;;;3.03;;
1691;SDS011;843;52.054;8.552;2024-01-16T00:46:06;6.13;;;2.57;;
1691;SDS011;843;52.054;8.552;2024-01-16T00:48:33;6.37;;;4.10;;
1691;SDS011;843;52.054;8.552;2024-01-16T00:50:59;4.70;;;2.70;;
1691;SDS011;843;52.054;8.552;2024-01-16T00:53:25;4.07;;;3.40;;
1691;SDS011;843;52.054;8.552;2024-01-16T00:55:53;4.27;;;2.90;;
1691;SDS011;843;52.054;8.552;2024-01-16T00:58:21;4.90;;;2.77;;
1691;SDS011;843;52.054;8.552;2024-01-16T01:00:47;4.00;;;3.63;;
1691;SDS011;843;52.054;8.552;2024-01-16T01:03:14;3.93;;;3.60;;
1691;SDS011;843;52.054;8.552;2024-01-16T01:05:40;5.00;;;3.47;;
1691;SDS011;843;52.054;8.552;2024-01-16T01:08:07;5.10;;;3.73;;
1691;SDS011;843;52.054;8.552;2024-01-16T01:10:34;9.33;;;3.30;;
1691;SDS011;843;52.054;8.552;2024-01-16T01:13:01;8.90;;;3.33;;
1691;SDS011;843;52.054;8.552;2024-01-16T01:15:28;12.40;;;3.73;;
1691;SDS011;843;52.054;8.552;2024-01-16T01:17:54;4.20;;;3.77;;
1691;SDS011;843;52.054;8.552;2024-01-16T01:20:21;5.40;;;3.30;;
1691;SDS011;843;52.054;8.552;2024-01-16T01:22:47;3.60;;;3.40;;
1691;SDS011;843;52.054;8.552;2024-01-16T01:25:13;4.73;;;3.73;;
1691;SDS011;843;52.054;8.552;2024-01-16T01:27:40;5.93;;;3.33;;
1691;SDS011;843;52.054;8.552;2024-01-16T01:30:09;4.83;;;3.63;;
1691;SDS011;843;52.054;8.552;2024-01-16T01:32:35;9.13;;;3.80;;
1691;SDS011;843;52.054;8.552;2024-01-16T01:35:02;12.17;;;3.80;;
1691;SDS011;843;52.054;8.552;2024-01-16T01:37:28;9.53;;;3.60;;
1691;SDS011;843;52.054;8.552;2024-01-16T01:39:55;14.30;;;4.87;;
1691;SDS011;843;52.054;8.552;2024-01-16T01:42:23;4.80;;;3.70;;
1691;SDS011;843;52.054;8.552;2024-01-16T01:44:50;7.27;;;3.97;;
1691;SDS011;843;52.054;8.552;2024-01-16T01:47:17;4.37;;;3.70;;
1691;SDS011;843;52.054;8.552;2024-01-16T01:49:44;4.10;;;3.57;;
1691;SDS011;843;52.054;8.552;2024-01-16T01:52:10;8.17;;;4.00;;
1691;SDS011;843;52.054;8.552;2024-01-16T01:54:37;7.10;;;3.73;;
1691;SDS011;843;52.054;8.552;2024-01-16T01:57:04;5.90;;;3.70;;
1691;SDS011;843;52.054;8.552;2024-01-16T01:59:30;9.33;;;4.57;;
1691;SDS011;843;52.054;8.552;2024-01-16T02:01:57;6.70;;;3.40;;
1691;SDS011;843;52.054;8.552;2024-01-16T02:04:25;11.20;;;4.73;;
1691;SDS011;843;52.054;8.552;2024-01-16T02:06:52;13.10;;;4.83;;
1691;SDS011;843;52.054;8.552;2024-01-16T02:09:19;11.43;;;4.70;;
1691;SDS011;843;52.054;8.552;2024-01-16T02:11:46;7.17;;;6.43;;
1691;SDS011;843;52.054;8.552;2024-01-16T02:14:12;5.70;;;4.67;;
1691;SDS011;843;52.054;8.552;2024-01-16T02:16:40;5.80;;;4.03;;
1691;SDS011;843;52.054;8.552;2024-01-16T02:19:06;10.27;;;6.20;;
1691;SDS011;843;52.054;8.552;2024-01-16T02:21:36;5.60;;;4.90;;
1691;SDS011;843;52.054;8.552;2024-01-16T02:24:04;5.47;;;4.33;;
1691;SDS011;843;52.054;8.552;2024-01-16T02:26:31;6.07;;;4.53;;
1691;SDS011;843;52.054;8.552;2024-01-16T02:28:58;5.17;;;4.67;;
1691;SDS011;843;52.054;8.552;2024-01-16T02:31:26;11.03;;;4.97;;
1691;SDS011;843;52.054;8.552;2024-01-16T02:33:53;8.43;;;4.80;;
1691;SDS011;843;52.054;8.552;2024-01-16T02:36:19;11.73;;;5.23;;
1691;SDS011;843;52.054;8.552;2024-01-16T02:38:45;8.63;;;5.33;;
1691;SDS011;843;52.054;8.552;2024-01-16T02:41:16;9.07;;;4.80;;
1691;SDS011;843;52.054;8.552;2024-01-16T02:43:42;7.60;;;5.13;;
1691;SDS011;843;52.054;8.552;2024-01-16T02:46:09;9.23;;;4.87;;
1691;SDS011;843;52.054;8.552;2024-01-16T02:48:35;9.90;;;5.37;;
1691;SDS011;843;52.054;8.552;2024-01-16T02:51:02;11.03;;;5.50;;
1691;SDS011;843;52.054;8.552;2024-01-16T02:53:28;9.23;;;5.43;;
1691;SDS011;843;52.054;8.552;2024-01-16T02:55:55;10.00;;;4.80;;
1691;SDS011;843;52.054;8.552;2024-01-16T02:58:25;11.50;;;5.07;;
1691;SDS011;843;52.054;8.552;2024-01-16T03:00:51;10.00;;;5.23;;
1691;SDS011;843;52.054;8.552;2024-01-16T03:03:17;10.83;;;5.70;;
1691;SDS011;843;52.054;8.552;2024-01-16T03:05:44;15.53;;;4.73;;
1691;SDS011;843;52.054;8.552;2024-01-16T03:08:10;8.97;;;5.30;;
1691;SDS011;843;52.054;8.552;2024-01-16T03:10:37;6.13;;;5.20;;
1691;SDS011;843;52.054;8.552;2024-01-16T03:13:03;9.80;;;5.20;;
1691;SDS011;843;52.054;8.552;2024-01-16T03:15:31;10.70;;;5.77;;
1691;SDS011;843;52.054;8.552;2024-01-16T03:17:58;6.70;;;4.63;;
1691;SDS011;843;52.054;8.552;2024-01-16T03:20:25;5.13;;;4.73;;
1691;SDS011;843;52.054;8.552;2024-01-16T03:22:51;10.80;;;5.10;;
1691;SDS011;843;52.054;8.552;2024-01-16T03:25:18;6.17;;;4.90;;
1691;SDS011;843;52.054;8.552;2024-01-16T03:27:45;9.43;;;5.47;;
1691;SDS011;843;52.054;8.552;2024-01-16T03:30:12;12.00;;;5.70;;
1691;SDS011;843;52.054;8.552;2024-01-16T03:32:41;9.23;;;5.37;;
1691;SDS011;843;52.054;8.552;2024-01-16T03:35:07;6.10;;;5.47;;
1691;SDS011;843;52.054;8.552;2024-01-16T03:37:34;8.47;;;4.93;;
1691;SDS011;843;52.054;8.552;2024-01-16T03:40:00;6.70;;;5.53;;
1691;SDS011;843;52.054;8.552;2024-01-16T03:42:27;5.90;;;4.90;;
1691;SDS011;843;52.054;8.552;2024-01-16T03:44:54;7.77;;;5.10;;
1691;SDS011;843;52.054;8.552;2024-01-16T03:47:20;5.90;;;5.30;;
1691;SDS011;843;52.054;8.552;2024-01-16T03:49:48;17.33;;;6.10;;
1691;SDS011;843;52.054;8.552;2024-01-16T03:52:15;11.30;;;5.60;;
1691;SDS011;843;52.054;8.552;2024-01-16T03:54:41;6.63;;;5.63;;
1691;SDS011;843;52.054;8.552;2024-01-16T03:57:08;8.43;;;5.00;;
1691;SDS011;843;52.054;8.552;2024-01-16T03:59:36;10.57;;;6.20;;
1691;SDS011;843;52.054;8.552;2024-01-16T04:02:02;8.33;;;5.93;;
1691;SDS011;843;52.054;8.552;2024-01-16T04:04:29;6.70;;;5.40;;
1691;SDS011;843;52.054;8.552;2024-01-16T04:06:57;7.93;;;5.80;;
1691;SDS011;843;52.054;8.552;2024-01-16T04:09:23;9.00;;;5.80;;
1691;SDS011;843;52.054;8.552;2024-01-16T04:11:49;8.33;;;6.00;;
1691;SDS011;843;52.054;8.552;2024-01-16T04:14:16;9.03;;;5.63;;
1691;SDS011;843;52.054;8.552;2024-01-16T04:16:43;7.90;;;4.93;;
1691;SDS011;843;52.054;8.552;2024-01-16T04:19:09;9.00;;;5.93;;
1691;SDS011;843;52.054;8.552;2024-01-16T04:21:36;14.40;;;7.97;;
1691;SDS011;843;52.054;8.552;2024-01-16T04:24:04;11.33;;;6.87;;
1691;SDS011;843;52.054;8.552;2024-01-16T04:26:30;11.63;;;6.60;;
1691;SDS011;843;52.054;8.552;2024-01-16T04:28:57;9.20;;;7.30;;
1691;SDS011;843;52.054;8.552;2024-01-16T04:31:23;7.70;;;6.87;;
1691;SDS011;843;52.054;8.552;2024-01-16T04:33:50;12.13;;;7.40;;
1691;SDS011;843;52.054;8.552;2024-01-16T04:36:16;13.10;;;7.87;;
1691;SDS011;843;52.054;8.552;2024-01-16T04:38:42;10.70;;;8.47;;
1691;SDS011;843;52.054;8.552;2024-01-16T04:41:10;14.20;;;7.50;;
1691;SDS011;843;52.054;8.552;2024-01-16T04:43:37;8.43;;;7.37;;
1691;SDS011;843;52.054;8.552;2024-01-16T04:46:03;10.80;;;6.93;;
1691;SDS011;843;52.054;8.552;2024-01-16T04:48:30;7.33;;;6.70;;
1691;SDS011;843;52.054;8.552;2024-01-16T04:50:56;7.57;;;6.77;;
1691;SDS011;843;52.054;8.552;2024-01-16T04:53:23;10.63;;;6.17;;
1691;SDS011;843;52.054;8.552;2024-01-16T04:55:49;10.67;;;8.10;;
1691;SDS011;843;52.054;8.552;2024-01-16T04:58:17;10.27;;;6.97;;
1691;SDS011;843;52.054;8.552;2024-01-16T05:00:44;13.40;;;7.33;;
1691;SDS011;843;52.054;8.552;2024-01-16T05:03:11;9.27;;;7.23;;
1691;SDS011;843;52.054;8.552;2024-01-16T05:05:38;10.10;;;6.80;;
1691;SDS011;843;52.054;8.552;2024-01-16T05:08:04;7.33;;;6.07;;
1691;SDS011;843;52.054;8.552;2024-01-16T05:10:31;14.33;;;7.63;;
1691;SDS011;843;52.054;8.552;2024-01-16T05:12:57;9.07;;;6.80;;
1691;SDS011;843;52.054;8.552;2024-01-16T05:15:25;9.50;;;6.67;;
1691;SDS011;843;52.054;8.552;2024-01-16T05:17:51;9.10;;;7.47;;
1691;SDS011;843;52.054;8.552;2024-01-16T05:20:18;11.10;;;6.33;;
1691;SDS011;843;52.054;8.552;2024-01-16T05:22:44;12.43;;;6.50;;
1691;SDS011;843;52.054;8.552;2024-01-16T05:25:11;17.10;;;6.90;;
1691;SDS011;843;52.054;8.552;2024-01-16T05:27:37;11.10;;;5.73;;
1691;SDS011;843;52.054;8.552;2024-01-16T05:30:04;13.10;;;6.60;;
1691;SDS011;843;52.054;8.552;2024-01-16T05:32:33;10.70;;;6.70;;
1691;SDS011;843;52.054;8.552;2024-01-16T05:34:59;7.00;;;5.20;;
1691;SDS011;843;52.054;8.552;2024-01-16T05:37:26;11.63;;;6.27;;
1691;SDS011;843;52.054;8.552;2024-01-16T05:39:54;8.23;;;6.20;;
1691;SDS011;843;52.054;8.552;2024-01-16T05:42:20;8.77;;;6.03;;
1691;SDS011;843;52.054;8.552;2024-01-16T05:44:47;10.43;;;7.57;;
1691;SDS011;843;52.054;8.552;2024-01-16T05:47:13;8.10;;;6.80;;
1691;SDS011;843;52.054;8.552;2024-01-16T05:49:41;13.13;;;7.33;;
1691;SDS011;843;52.054;8.552;2024-01-16T05:52:08;7.50;;;5.60;;
1691;SDS011;843;52.054;8.552;2024-01-16T05:54:35;8.93;;;5.43;;
1691;SDS011;843;52.054;8.552;2024-01-16T05:57:01;10.67;;;6.97;;
1691;SDS011;843;52.054;8.552;2024-01-16T05:59:28;14.33;;;6.30;;
1691;SDS011;843;52.054;8.552;2024-01-16T06:01:55;10.00;;;5.40;;
1691;SDS011;843;52.054;8.552;2024-01-16T06:04:21;8.20;;;5.90;;
1691;SDS011;843;52.054;8.552;2024-01-16T06:06:49;8.43;;;6.20;;
1691;SDS011;843;52.054;8.552;2024-01-16T06:09:15;9.00;;;5.60;;
1691;SDS011;843;52.054;8.552;2024-01-16T06:11:42;6.90;;;6.20;;
1691;SDS011;843;52.054;8.552;2024-01-16T06:14:08;10.97;;;5.70;;
1691;SDS011;843;52.054;8.552;2024-01-16T06:16:35;13.10;;;6.13;;
1691;SDS011;843;52.054;8.552;2024-01-16T06:19:01;10.57;;;5.70;;
1691;SDS011;843;52.054;8.552;2024-01-16T06:21:28;12.63;;;6.90;;
1691;SDS011;843;52.054;8.552;2024-01-16T06:23:55;9.23;;;5.77;;
1691;SDS011;843;52.054;8.552;2024-01-16T06:26:22;8.63;;;5.73;;
1691;SDS011;843;52.054;8.552;2024-01-16T06:28:48;8.47;;;5.77;;
1691;SDS011;843;52.054;8.552;2024-01-16T06:31:16;9.53;;;6.80;;
1691;SDS011;843;52.054;8.552;2024-01-16T06:33:42;7.30;;;6.03;;
1691;SDS011;843;52.054;8.552;2024-01-16T06:36:09;10.60;;;6.80;;
1691;SDS011;843;52.054;8.552;2024-01-16T06:38:35;13.13;;;6.90;;
1691;SDS011;843;52.054;8.552;2024-01-16T06:41:05;7.73;;;6.50;;
1691;SDS011;843;52.054;8.552;2024-01-16T06:43:31;9.20;;;6.37;;
1691;SDS011;843;52.054;8.552;2024-01-16T06:45:58;9.67;;;6.90;;
1691;SDS011;843;52.054;8.552;2024-01-16T06:48:24;7.17;;;5.93;;
1691;SDS011;843;52.054;8.552;2024-01-16T06:50:51;8.00;;;5.97;;
1691;SDS011;843;52.054;8.552;2024-01-16T06:53:17;11.63;;;6.90;;
1691;SDS011;843;52.054;8.552;2024-01-16T06:55:44;7.87;;;5.17;;
1691;SDS011;843;52.054;8.552;2024-01-16T06:58:11;10.17;;;6.27;;
1691;SDS011;843;52.054;8.552;2024-01-16T07:00:38;12.30;;;6.97;;
1691;SDS011;843;52.054;8.552;2024-01-16T07:03:06;6.70;;;6.00;;
1691;SDS011;843;52.054;8.552;2024-01-16T07:05:33;10.07;;;6.17;;
1691;SDS011;843;52.054;8.552;2024-01-16T07:07:59;11.50;;;6.70;;
1691;SDS011;843;52.054;8.552;2024-01-16T07:10:25;11.30;;;6.70;;
1691;SDS011;843;52.054;8.552;2024-01-16T07:12:52;11.00;;;7.17;;
1691;SDS011;843;52.054;8.552;2024-01-16T07:15:20;11.83;;;6.73;;
1691;SDS011;843;52.054;8.552;2024-01-16T07:17:46;12.10;;;6.63;;
1691;SDS011;843;52.054;8.552;2024-01-16T07:20:12;8.77;;;6.17;;
1691;SDS011;843;52.054;8.552;2024-01-16T07:22:39;12.83;;;6.70;;
1691;SDS011;843;52.054;8.552;2024-01-16T07:25:06;12.63;;;6.50;;
1691;SDS011;843;52.054;8.552;2024-01-16T07:27:32;9.50;;;6.87;;
1691;SDS011;843;52.054;8.552;2024-01-16T07:29:59;12.27;;;7.10;;
1691;SDS011;843;52.054;8.552;2024-01-16T07:32:27;9.13;;;7.10;;
1691;SDS011;843;52.054;8.552;2024-01-16T07:34:53;8.60;;;6.97;;
1691;SDS011;843;52.054;8.552;2024-01-16T07:37:19;11.30;;;7.40;;
1691;SDS011;843;52.054;8.552;2024-01-16T07:39:46;10.63;;;7.00;;
1691;SDS011;843;52.054;8.552;2024-01-16T07:42:13;9.07;;;7.63;;
1691;SDS011;843;52.054;8.552;2024-01-16T07:44:39;9.23;;;7.70;;
1691;SDS011;843;52.054;8.552;2024-01-16T07:47:05;10.80;;;6.77;;
1691;SDS011;843;52.054;8.552;2024-01-16T07:49:34;10.50;;;7.03;;
1691;SDS011;843;52.054;8.552;2024-01-16T07:52:00;12.77;;;7.03;;
1691;SDS011;843;52.054;8.552;2024-01-16T07:54:27;11.17;;;7.00;;
1691;SDS011;843;52.054;8.552;2024-01-16T07:56:53;13.33;;;7.57;;
1691;SDS011;843;52.054;8.552;2024-01-16T07:59:20;10.33;;;7.43;;
1691;SDS011;843;52.054;8.552;2024-01-16T08:01:46;15.07;;;8.50;;
1691;SDS011;843;52.054;8.552;2024-01-16T08:04:12;12.73;;;7.57;;
1691;SDS011;843;52.054;8.552;2024-01-16T08:06:40;9.60;;;7.33;;
1691;SDS011;843;52.054;8.552;2024-01-16T08:09:07;10.67;;;8.03;;
1691;SDS011;843;52.054;8.552;2024-01-16T08:11:33;11.43;;;8.40;;
1691;SDS011;843;52.054;8.552;2024-01-16T08:14:01;7.53;;;6.70;;
1691;SDS011;843;52.054;8.552;2024-01-16T08:16:28;11.07;;;7.00;;
1691;SDS011;843;52.054;8.552;2024-01-16T08:18:54;11.87;;;7.57;;
1691;SDS011;843;52.054;8.552;2024-01-16T08:21:21;11.13;;;8.10;;
1691;SDS011;843;52.054;8.552;2024-01-16T08:23:48;11.77;;;8.13;;
1691;SDS011;843;52.054;8.552;2024-01-16T08:26:15;8.87;;;7.57;;
1691;SDS011;843;52.054;8.552;2024-01-16T08:28:41;8.03;;;7.20;;
1691;SDS011;843;52.054;8.552;2024-01-16T08:31:08;11.80;;;7.40;;
1691;SDS011;843;52.054;8.552;2024-01-16T08:33:34;10.87;;;7.03;;
1691;SDS011;843;52.054;8.552;2024-01-16T08:36:01;14.07;;;7.77;;
1691;SDS011;843;52.054;8.552;2024-01-16T08:38:27;12.00;;;8.00;;
1691;SDS011;843;52.054;8.552;2024-01-16T08:40:55;10.43;;;7.13;;
1691;SDS011;843;52.054;8.552;2024-01-16T08:43:21;11.77;;;8.27;;
1691;SDS011;843;52.054;8.552;2024-01-16T08:45:48;12.10;;;7.47;;
1691;SDS011;843;52.054;8.552;2024-01-16T08:48:15;9.40;;;7.10;;
1691;SDS011;843;52.054;8.552;2024-01-16T08:50:41;10.20;;;7.20;;
1691;SDS011;843;52.054;8.552;2024-01-16T08:53:08;9.97;;;7.10;;
1691;SDS011;843;52.054;8.552;2024-01-16T08:55:34;9.50;;;6.73;;
1691;SDS011;843;52.054;8.552;2024-01-16T08:58:02;7.10;;;6.40;;
1691;SDS011;843;52.054;8.552;2024-01-16T09:00:29;13.40;;;6.00;;
1691;SDS011;843;52.054;8.552;2024-01-16T09:02:55;8.97;;;6.50;;
1691;SDS011;843;52.054;8.552;2024-01-16T09:05:22;10.73;;;7.10;;
1691;SDS011;843;52.054;8.552;2024-01-16T09:07:50;9.17;;;6.40;;
1691;SDS011;843;52.054;8.552;2024-01-16T09:10:17;8.50;;;6.80;;
1691;SDS011;843;52.054;8.552;2024-01-16T09:12:43;8.10;;;6.40;;
1691;SDS011;843;52.054;8.552;2024-01-16T09:15:11;9.13;;;6.87;;
1691;SDS011;843;52.054;8.552;2024-01-16T09:17:38;7.20;;;6.50;;
1691;SDS011;843;52.054;8.552;2024-01-16T09:20:06;6.87;;;5.83;;
1691;SDS011;843;52.054;8.552;2024-01-16T09:22:33;7.63;;;6.57;;
1691;SDS011;843;52.054;8.552;2024-01-16T09:24:59;7.90;;;5.90;;
1691;SDS011;843;52.054;8.552;2024-01-16T09:27:26;12.57;;;6.33;;
1691;SDS011;843;52.054;8.552;2024-01-16T09:29:52;6.47;;;5.47;;
1691;SDS011;843;52.054;8.552;2024-01-16T09:32:20;7.90;;;6.17;;
1691;SDS011;843;52.054;8.552;2024-01-16T09:34:47;7.23;;;6.37;;
1691;SDS011;843;52.054;8.552;2024-01-16T09:37:13;6.50;;;5.97;;
1691;SDS011;843;52.054;8.552;2024-01-16T09:39:40;7.87;;;6.83;;
1691;SDS011;843;52.054;8.552;2024-01-16T09:42:06;7.37;;;6.57;;
1691;SDS011;843;52.054;8.552;2024-01-16T09:44:33;7.67;;;6.47;;
1691;SDS011;843;52.054;8.552;2024-01-16T09:47:00;11.43;;;6.80;;
1691;SDS011;843;52.054;8.552;2024-01-16T09:49:30;7.10;;;6.40;;
1691;SDS011;843;52.054;8.552;2024-01-16T09:51:56;7.30;;;6.10;;
1691;SDS011;843;52.054;8.552;2024-01-16T09:54:24;11.67;;;7.00;;
1691;SDS011;843;52.054;8.552;2024-01-16T09:56:52;7.10;;;6.40;;
1691;SDS011;843;52.054;8.552;2024-01-16T09:59:19;8.60;;;7.10;;
1691;SDS011;843;52.054;8.552;2024-01-16T10:01:46;10.50;;;7.63;;
1691;SDS011;843;52.054;8.552;2024-01-16T10:04:15;7.90;;;7.10;;
1691;SDS011;843;52.054;8.552;2024-01-16T10:06:43;9.67;;;8.20;;
1691;SDS011;843;52.054;8.552;2024-01-16T10:09:11;8.90;;;8.00;;
1691;SDS011;843;52.054;8.552;2024-01-16T10:11:38;12.20;;;9.00;;
1691;SDS011;843;52.054;8.552;2024-01-16T10:14:05;12.70;;;8.57;;
1691;SDS011;843;52.054;8.552;2024-01-16T10:19:16;13.63;;;10.00;;
1691;SDS011;843;52.054;8.552;2024-01-16T10:21:44;10.93;;;8.80;;
1691;SDS011;843;52.054;8.552;2024-01-16T10:24:10;16.10;;;9.90;;
1691;SDS011;843;52.054;8.552;2024-01-16T10:26:38;13.10;;;10.30;;
1691;SDS011;843;52.054;8.552;2024-01-16T10:29:04;14.27;;;10.63;;
1691;SDS011;843;52.054;8.552;2024-01-16T10:31:30;28.17;;;11.80;;
1691;SDS011;843;52.054;8.552;2024-01-16T10:33:57;22.13;;;11.67;;
1691;SDS011;843;52.054;8.552;2024-01-16T10:36:23;16.07;;;11.93;;
1691;SDS011;843;52.054;8.552;2024-01-16T10:38:52;22.70;;;13.40;;
1691;SDS011;843;52.054;8.552;2024-01-16T10:41:28;22.37;;;13.37;;
1691;SDS011;843;52.054;8.552;2024-01-16T10:44:03;15.30;;;12.50;;
1691;SDS011;843;52.054;8.552;2024-01-16T10:46:29;20.67;;;13.07;;
1691;SDS011;843;52.054;8.552;2024-01-16T10:48:59;18.53;;;12.87;;
1691;SDS011;843;52.054;8.552;2024-01-16T10:51:26;16.77;;;13.70;;
1691;SDS011;843;52.054;8.552;2024-01-16T10:53:55;20.47;;;14.80;;
1691;SDS011;843;52.054;8.552;2024-01-16T10:56:25;26.10;;;15.20;;
1691;SDS011;843;52.054;8.552;2024-01-16T10:58:55;21.93;;;15.30;;
1691;SDS011;843;52.054;8.552;2024-01-16T11:01:23;18.13;;;15.03;;
1691;SDS011;843;52.054;8.552;2024-01-16T11:03:50;19.97;;;16.00;;
1691;SDS011;843;52.054;8.552;2024-01-16T11:06:18;22.87;;;16.63;;
1691;SDS011;843;52.054;8.552;2024-01-16T11:08:45;27.10;;;16.30;;
1691;SDS011;843;52.054;8.552;2024-01-16T11:11:13;23.87;;;17.93;;
1691;SDS011;843;52.054;8.552;2024-01-16T11:13:39;22.93;;;15.20;;
1691;SDS011;843;52.054;8.552;2024-01-16T11:16:10;23.60;;;16.10;;
1691;SDS011;843;52.054;8.552;2024-01-16T11:18:36;19.57;;;17.30;;
1691;SDS011;843;52.054;8.552;2024-01-16T11:21:04;24.97;;;17.60;;
1691;SDS011;843;52.054;8.552;2024-01-16T11:23:30;21.07;;;17.60;;
1691;SDS011;843;52.054;8.552;2024-01-16T11:25:57;22.00;;;16.83;;
1691;SDS011;843;52.054;8.552;2024-01-16T11:28:28;28.77;;;18.70;;
1691;SDS011;843;52.054;8.552;2024-01-16T11:30:55;25.50;;;18.67;;
1691;SDS011;843;52.054;8.552;2024-01-16T11:36:16;19.07;;;14.43;;
1691;SDS011;843;52.054;8.552;2024-01-16T11:39:02;19.20;;;14.40;;
1691;SDS011;843;52.054;8.552;2024-01-16T11:41:49;17.13;;;13.00;;
1691;SDS011;843;52.054;8.552;2024-01-16T11:47:02;17.87;;;12.20;;
1691;SDS011;843;52.054;8.552;2024-01-16T11:49:29;21.20;;;11.57;;
1691;SDS011;843;52.054;8.552;2024-01-16T11:51:56;15.83;;;12.00;;
1691;SDS011;843;52.054;8.552;2024-01-16T11:54:23;15.03;;;10.50;;
1691;SDS011;843;52.054;8.552;2024-01-16T12:05:29;11.87;;;9.50;;
1691;SDS011;843;52.054;8.552;2024-01-16T12:07:57;10.07;;;9.07;;
1691;SDS011;843;52.054;8.552;2024-01-16T12:10:23;10.23;;;8.90;;
1691;SDS011;843;52.054;8.552;2024-01-16T12:12:51;11.40;;;9.07;;
1691;SDS011;843;52.054;8.552;2024-01-16T12:15:18;11.13;;;9.20;;
1691;SDS011;843;52.054;8.552;2024-01-16T12:17:52;15.93;;;8.20;;
1691;SDS011;843;52.054;8.552;2024-01-16T12:20:18;9.23;;;7.60;;
1691;SDS011;843;52.054;8.552;2024-01-16T12:22:46;8.27;;;7.03;;
1691;SDS011;843;52.054;8.552;2024-01-16T12:25:18;10.80;;;7.80;;
1691;SDS011;843;52.054;8.552;2024-01-16T12:27:45;12.40;;;8.03;;
1691;SDS011;843;52.054;8.552;2024-01-16T12:30:12;11.43;;;7.20;;
1691;SDS011;843;52.054;8.552;2024-01-16T12:32:38;11.00;;;7.03;;
1691;SDS011;843;52.054;8.552;2024-01-16T12:35:05;6.87;;;6.20;;
1691;SDS011;843;52.054;8.552;2024-01-16T12:37:31;10.00;;;7.43;;
1691;SDS011;843;52.054;8.552;2024-01-16T12:39:59;9.67;;;6.63;;
1691;SDS011;843;52.054;8.552;2024-01-16T12:42:26;11.30;;;6.20;;
1691;SDS011;843;52.054;8.552;2024-01-16T12:44:54;5.80;;;5.30;;
1691;SDS011;843;52.054;8.552;2024-01-16T12:47:20;9.47;;;7.63;;
1691;SDS011;843;52.054;8.552;2024-01-16T12:49:47;9.13;;;7.03;;
1691;SDS011;843;52.054;8.552;2024-01-16T12:52:17;7.67;;;5.80;;
1691;SDS011;843;52.054;8.552;2024-01-16T12:54:44;11.43;;;6.33;;
1691;SDS011;843;52.054;8.552;2024-01-16T12:57:17;8.03;;;6.73;;
1691;SDS011;843;52.054;8.552;2024-01-16T12:59:44;9.03;;;6.10;;
1691;SDS011;843;52.054;8.552;2024-01-16T13:02:18;6.97;;;5.47;;
1691;SDS011;843;52.054;8.552;2024-01-16T13:04:45;8.63;;;6.03;;
1691;SDS011;843;52.054;8.552;2024-01-16T13:07:15;9.67;;;6.23;;
1691;SDS011;843;52.054;8.552;2024-01-16T13:09:41;7.07;;;5.47;;
1691;SDS011;843;52.054;8.552;2024-01-16T13:12:08;6.03;;;5.53;;
1691;SDS011;843;52.054;8.552;2024-01-16T13:14:36;9.67;;;5.90;;
1691;SDS011;843;52.054;8.552;2024-01-16T13:17:03;8.90;;;5.67;;
1691;SDS011;843;52.054;8.552;2024-01-16T13:19:31;6.93;;;5.53;;
1691;SDS011;843;52.054;8.552;2024-01-16T13:21:58;10.70;;;5.37;;
1691;SDS011;843;52.054;8.552;2024-01-16T13:24:25;9.80;;;5.20;;
1691;SDS011;843;52.054;8.552;2024-01-16T13:26:51;10.03;;;5.60;;
1691;SDS011;843;52.054;8.552;2024-01-16T13:29:18;8.90;;;6.47;;
1691;SDS011;843;52.054;8.552;2024-01-16T13:31:46;9.70;;;6.87;;
1691;SDS011;843;52.054;8.552;2024-01-16T13:34:13;6.63;;;5.83;;
1691;SDS011;843;52.054;8.552;2024-01-16T13:36:39;10.90;;;7.20;;
1691;SDS011;843;52.054;8.552;2024-01-16T13:39:07;8.50;;;6.60;;
1691;SDS011;843;52.054;8.552;2024-01-16T13:41:37;7.33;;;6.63;;
1691;SDS011;843;52.054;8.552;2024-01-16T13:44:04;8.33;;;7.17;;
1691;SDS011;843;52.054;8.552;2024-01-16T13:46:31;6.67;;;5.57;;
1691;SDS011;843;52.054;8.552;2024-01-16T13:48:59;9.70;;;6.40;;
1691;SDS011;843;52.054;8.552;2024-01-16T13:51:25;8.23;;;6.27;;
1691;SDS011;843;52.054;8.552;2024-01-16T13:53:52;11.00;;;6.70;;
1691;SDS011;843;52.054;8.552;2024-01-16T13:56:19;8.83;;;6.30;;
1691;SDS011;843;52.054;8.552;2024-01-16T13:58:46;7.33;;;6.83;;
1691;SDS011;843;52.054;8.552;2024-01-16T14:01:12;8.33;;;6.20;;
1691;SDS011;843;52.054;8.552;2024-01-16T14:03:39;8.77;;;7.30;;
1691;SDS011;843;52.054;8.552;2024-01-16T14:06:07;9.80;;;6.50;;
1691;SDS011;843;52.054;8.552;2024-01-16T14:08:33;7.00;;;6.40;;
1691;SDS011;843;52.054;8.552;2024-01-16T14:11:00;7.80;;;6.30;;
1691;SDS011;843;52.054;8.552;2024-01-16T14:13:26;7.80;;;6.30;;
1691;SDS011;843;52.054;8.552;2024-01-16T14:15:52;10.83;;;6.60;;
1691;SDS011;843;52.054;8.552;2024-01-16T14:18:19;8.00;;;6.87;;
1691;SDS011;843;52.054;8.552;2024-01-16T14:20:45;11.27;;;6.40;;
1691;SDS011;843;52.054;8.552;2024-01-16T14:23:13;7.07;;;6.47;;
1691;SDS011;843;52.054;8.552;2024-01-16T14:25:40;6.83;;;6.07;;
1691;SDS011;843;52.054;8.552;2024-01-16T14:28:06;10.93;;;6.57;;
1691;SDS011;843;52.054;8.552;2024-01-16T14:30:34;8.23;;;6.37;;
1691;SDS011;843;52.054;8.552;2024-01-16T14:33:00;8.83;;;5.90;;
1691;SDS011;843;52.054;8.552;2024-01-16T14:35:27;10.00;;;5.93;;
1691;SDS011;843;52.054;8.552;2024-01-16T14:37:54;6.73;;;6.03;;
1691;SDS011;843;52.054;8.552;2024-01-16T14:40:21;7.27;;;6.10;;
1691;SDS011;843;52.054;8.552;2024-01-16T14:42:51;5.83;;;5.37;;
1691;SDS011;843;52.054;8.552;2024-01-16T14:45:18;10.17;;;6.30;;
1691;SDS011;843;52.054;8.552;2024-01-16T14:47:46;8.53;;;6.17;;
1691;SDS011;843;52.054;8.552;2024-01-16T14:50:12;15.37;;;6.77;;
1691;SDS011;843;52.054;8.552;2024-01-16T14:52:41;10.50;;;6.27;;
1691;SDS011;843;52.054;8.552;2024-01-16T14:55:08;8.87;;;6.80;;
1691;SDS011;843;52.054;8.552;2024-01-16T14:57:38;7.37;;;6.67;;
1691;SDS011;843;52.054;8.552;2024-01-16T15:00:08;11.23;;;6.20;;
1691;SDS011;843;52.054;8.552;2024-01-16T15:02:40;7.27;;;6.20;;
1691;SDS011;843;52.054;8.552;2024-01-16T15:05:07;8.50;;;7.10;;
1691;SDS011;843;52.054;8.552;2024-01-16T15:07:33;7.80;;;6.73;;
1691;SDS011;843;52.054;8.552;2024-01-16T15:10:02;8.53;;;7.00;;
1691;SDS011;843;52.054;8.552;2024-01-16T15:12:30;13.87;;;7.00;;
1691;SDS011;843;52.054;8.552;2024-01-16T15:14:58;9.23;;;6.63;;
1691;SDS011;843;52.054;8.552;2024-01-16T15:17:24;8.33;;;7.50;;
1691;SDS011;843;52.054;8.552;2024-01-16T15:19:52;8.10;;;6.70;;
1691;SDS011;843;52.054;8.552;2024-01-16T15:22:18;9.33;;;7.63;;
1691;SDS011;843;52.054;8.552;2024-01-16T15:24:46;9.60;;;8.53;;
1691;SDS011;843;52.054;8.552;2024-01-16T15:27:12;11.30;;;7.80;;
1691;SDS011;843;52.054;8.552;2024-01-16T15:29:39;14.40;;;8.53;;
1691;SDS011;843;52.054;8.552;2024-01-16T15:32:07;13.27;;;8.43;;
1691;SDS011;843;52.054;8.552;2024-01-16T15:34:35;9.47;;;8.57;;
1691;SDS011;843;52.054;8.552;2024-01-16T15:37:02;10.07;;;9.07;;
1691;SDS011;843;52.054;8.552;2024-01-16T15:39:28;11.43;;;7.50;;